createdAt,value
2023-11-09T00:00:02.911Z,1.1
2023-11-09T00:01:02.211Z,1.1
2023-11-09T00:02:02.189Z,1.1
2023-11-09T00:03:02.820Z,1.1
2023-11-09T00:04:01.919Z,1.2
2023-11-09T00:05:02.609Z,1.1
2023-11-09T00:06:02.444Z,1.1
2023-11-09T00:07:02.428Z,1.1
2023-11-09T00:08:02.173Z,1.2
2023-11-09T00:09:02.092Z,1.1
2023-11-09T00:10:02.412Z,1.1
2023-11-09T00:11:02.651Z,1.1
2023-11-09T00:12:02.254Z,1.1
2023-11-09T00:13:02.265Z,1.1
2023-11-09T00:14:02.477Z,1
2023-11-09T00:16:01.659Z,1
2023-11-09T00:17:02.584Z,1
2023-11-09T00:20:03.009Z,1
2023-11-09T00:21:02.494Z,0.9
2023-11-09T00:22:03.017Z,0.9
2023-11-09T00:23:02.937Z,0.9
2023-11-09T00:24:02.581Z,0.9
2023-11-09T00:25:02.545Z,0.9
2023-11-09T00:26:00.853Z,0.8
2023-11-09T00:27:02.756Z,0.8
2023-11-09T00:28:02.543Z,0.8
2023-11-09T00:29:02.565Z,0.8
2023-11-09T00:30:02.440Z,0.8
2023-11-09T00:32:02.745Z,0.8
2023-11-09T00:33:02.458Z,0.8
2023-11-09T00:34:02.311Z,0.8
2023-11-09T00:35:02.137Z,0.8
2023-11-09T00:36:02.692Z,0.8
2023-11-09T00:37:02.545Z,0.8
2023-11-09T00:38:02.299Z,0.8
2023-11-09T00:40:02.478Z,0.8
2023-11-09T00:41:02.890Z,0.8
2023-11-09T00:42:02.040Z,0.8
2023-11-09T00:43:02.117Z,0.8
2023-11-09T00:44:02.895Z,0.8
2023-11-09T00:45:02.612Z,0.8
2023-11-09T00:46:02.917Z,0.7
2023-11-09T00:47:02.117Z,0.7
2023-11-09T00:48:02.181Z,0.7
2023-11-09T00:49:02.282Z,0.8
2023-11-09T00:50:02.524Z,0.8
2023-11-09T00:51:02.112Z,0.7
2023-11-09T00:52:02.375Z,0.7
2023-11-09T00:53:02.387Z,0.7
2023-11-09T00:54:02.580Z,0.7
2023-11-09T00:55:02.004Z,0.7
2023-11-09T00:56:01.897Z,0.7
2023-11-09T00:57:02.570Z,0.7
2023-11-09T00:58:01.714Z,0.7
2023-11-09T00:59:02.689Z,0.7
2023-11-09T01:01:02.728Z,0.6
2023-11-09T01:02:02.173Z,0.6
2023-11-09T01:03:02.223Z,0.7
2023-11-09T01:04:03.118Z,0.7
2023-11-09T01:05:02.395Z,0.6
2023-11-09T01:06:01.865Z,0.7
2023-11-09T01:07:02.038Z,0.6
2023-11-09T01:08:02.667Z,0.6
2023-11-09T01:09:02.193Z,0.5
2023-11-09T01:10:02.992Z,0.6
2023-11-09T01:11:02.621Z,0.5
2023-11-09T01:12:01.769Z,0.5
2023-11-09T01:13:02.410Z,0.5
2023-11-09T01:14:02.367Z,0.5
2023-11-09T01:15:02.453Z,0.5
2023-11-09T01:16:01.764Z,0.5
2023-11-09T01:17:02.586Z,0.5
2023-11-09T01:18:01.910Z,0.5
2023-11-09T01:19:02.352Z,0.5
2023-11-09T01:20:02.717Z,0.5
2023-11-09T01:21:02.030Z,0.5
2023-11-09T01:22:02.481Z,0.5
2023-11-09T01:23:02.360Z,0.4
2023-11-09T01:24:01.970Z,0.4
2023-11-09T01:26:01.964Z,0.4
2023-11-09T01:27:02.908Z,0.4
2023-11-09T01:28:01.592Z,0.4
2023-11-09T01:29:02.014Z,0.4
2023-11-09T01:30:02.394Z,0.4
2023-11-09T01:32:02.059Z,0.4
2023-11-09T01:33:02.363Z,0.4
2023-11-09T01:35:02.567Z,0.4
2023-11-09T01:36:02.168Z,0.3
2023-11-09T01:37:02.600Z,0.4
2023-11-09T01:39:02.720Z,0.4
2023-11-09T01:40:03.050Z,0.3
2023-11-09T01:41:02.157Z,0.3
2023-11-09T01:42:02.678Z,0.3
2023-11-09T01:43:02.362Z,0.4
2023-11-09T01:45:02.298Z,0.3
2023-11-09T01:47:02.620Z,0.2
2023-11-09T01:48:02.125Z,0.2
2023-11-09T01:49:02.247Z,0.2
2023-11-09T01:50:02.805Z,0.2
2023-11-09T01:51:02.692Z,0.2
2023-11-09T01:53:02.481Z,0.2
2023-11-09T01:54:02.051Z,0.2
2023-11-09T01:55:02.884Z,0.2
2023-11-09T01:56:02.833Z,0.3
2023-11-09T01:57:02.755Z,0.2
2023-11-09T01:58:02.466Z,0.3
2023-11-09T01:59:02.330Z,0.2
2023-11-09T02:00:02.531Z,0.2
2023-11-09T02:01:02.015Z,0.2
2023-11-09T02:02:02.312Z,0.2
2023-11-09T02:03:02.532Z,0.2
2023-11-09T02:04:02.709Z,0.2
2023-11-09T02:05:02.186Z,0.2
2023-11-09T02:06:02.671Z,0.2
2023-11-09T02:07:02.877Z,0.2
2023-11-09T02:08:02.821Z,0.2
2023-11-09T02:09:02.166Z,0.2
2023-11-09T02:10:02.851Z,0.2
2023-11-09T02:11:01.969Z,0.1
2023-11-09T02:12:02.089Z,0.1
2023-11-09T02:13:02.425Z,0.1
2023-11-09T02:14:02.185Z,0.1
2023-11-09T02:15:02.535Z,0.1
2023-11-09T02:16:02.676Z,0
2023-11-09T02:17:01.823Z,0
2023-11-09T02:18:02.430Z,0
2023-11-09T02:19:02.691Z,0
2023-11-09T02:20:02.450Z,0
2023-11-09T02:21:02.269Z,0
2023-11-09T02:22:01.989Z,0
2023-11-09T02:25:02.581Z,0
2023-11-09T02:26:02.481Z,0
2023-11-09T02:27:02.158Z,0
2023-11-09T02:28:02.793Z,0
2023-11-09T02:29:02.074Z,0
2023-11-09T02:31:02.555Z,0
2023-11-09T02:32:02.798Z,0
2023-11-09T02:33:02.893Z,0
2023-11-09T02:34:02.905Z,0
2023-11-09T02:35:02.624Z,0
2023-11-09T02:36:02.756Z,0
2023-11-09T02:40:02.798Z,0
2023-11-09T02:41:02.902Z,0
2023-11-09T02:44:02.687Z,0
2023-11-09T02:45:02.926Z,0
2023-11-09T02:46:02.426Z,0
2023-11-09T02:48:02.854Z,0
2023-11-09T02:49:02.344Z,0
2023-11-09T02:50:02.302Z,0
2023-11-09T02:51:02.505Z,0
2023-11-09T02:52:02.793Z,0
2023-11-09T02:53:02.647Z,0
2023-11-09T02:55:02.380Z,0
2023-11-09T02:56:02.948Z,0
2023-11-09T02:57:02.905Z,0
2023-11-09T02:58:02.746Z,0
2023-11-09T03:00:02.797Z,0
2023-11-09T03:01:02.822Z,0
2023-11-09T03:03:01.989Z,0
2023-11-09T03:04:02.706Z,0
2023-11-09T03:05:03.003Z,0
2023-11-09T03:06:02.585Z,0
2023-11-09T03:07:02.223Z,0
2023-11-09T03:08:02.748Z,0
2023-11-09T03:09:02.591Z,0
2023-11-09T03:10:02.366Z,0
2023-11-09T03:13:02.932Z,0
2023-11-09T03:14:02.597Z,-0.1
2023-11-09T03:15:02.922Z,-0.1
2023-11-09T03:16:02.969Z,-0.1
2023-11-09T03:17:02.282Z,-0.1
2023-11-09T03:18:03.096Z,-0.1
2023-11-09T03:19:02.807Z,-0.1
2023-11-09T03:20:02.821Z,-0.1
2023-11-09T03:21:02.562Z,-0.1
2023-11-09T03:22:02.414Z,-0.1
2023-11-09T03:23:02.359Z,-0.1
2023-11-09T03:24:02.278Z,-0.2
2023-11-09T03:25:02.246Z,-0.2
2023-11-09T03:27:02.981Z,-0.2
2023-11-09T03:28:02.035Z,-0.2
2023-11-09T03:29:02.237Z,-0.1
2023-11-09T03:30:01.988Z,-0.1
2023-11-09T03:32:02.242Z,-0.2
2023-11-09T03:33:02.249Z,-0.2
2023-11-09T03:34:02.418Z,-0.2
2023-11-09T03:35:02.321Z,-0.2
2023-11-09T03:36:02.362Z,-0.2
2023-11-09T03:37:02.672Z,-0.2
2023-11-09T03:38:02.245Z,-0.2
2023-11-09T03:39:02.513Z,-0.3
2023-11-09T03:40:03.007Z,-0.2
2023-11-09T03:41:02.344Z,-0.3
2023-11-09T03:42:02.280Z,-0.3
2023-11-09T03:43:02.765Z,-0.2
2023-11-09T03:44:02.216Z,-0.3
2023-11-09T03:45:02.533Z,-0.3
2023-11-09T03:46:02.597Z,-0.2
2023-11-09T03:47:02.130Z,-0.2
2023-11-09T03:48:02.636Z,-0.3
2023-11-09T03:49:01.637Z,-0.2
2023-11-09T03:50:02.107Z,-0.2
2023-11-09T03:51:02.384Z,-0.3
2023-11-09T03:52:02.991Z,-0.3
2023-11-09T03:53:02.797Z,-0.3
2023-11-09T03:54:03.022Z,-0.3
2023-11-09T03:55:02.181Z,-0.3
2023-11-09T03:57:02.701Z,-0.3
2023-11-09T03:58:02.888Z,-0.3
2023-11-09T03:59:02.829Z,-0.2
2023-11-09T04:00:02.399Z,-0.2
2023-11-09T04:01:02.657Z,-0.3
2023-11-09T04:04:02.236Z,-0.2
2023-11-09T04:05:02.411Z,-0.2
2023-11-09T04:06:02.584Z,-0.2
2023-11-09T04:08:02.796Z,-0.2
2023-11-09T04:09:02.504Z,-0.2
2023-11-09T04:10:02.558Z,-0.1
2023-11-09T04:11:02.442Z,-0.1
2023-11-09T04:12:02.276Z,-0.1
2023-11-09T04:13:02.444Z,-0.2
2023-11-09T04:14:02.963Z,-0.2
2023-11-09T04:15:01.967Z,-0.2
2023-11-09T04:16:02.187Z,-0.1
2023-11-09T04:18:02.665Z,-0.1
2023-11-09T04:19:02.742Z,-0.1
2023-11-09T04:21:02.540Z,-0.2
2023-11-09T04:22:01.665Z,-0.1
2023-11-09T04:23:02.366Z,-0.2
2023-11-09T04:24:02.304Z,-0.2
2023-11-09T04:25:02.773Z,-0.2
2023-11-09T04:26:02.407Z,-0.2
2023-11-09T04:28:02.563Z,-0.2
2023-11-09T04:31:02.633Z,-0.2
2023-11-09T04:32:02.059Z,-0.2
2023-11-09T04:33:02.691Z,-0.2
2023-11-09T04:34:02.234Z,-0.2
2023-11-09T04:35:02.582Z,-0.2
2023-11-09T04:36:02.177Z,-0.2
2023-11-09T04:37:02.816Z,-0.2
2023-11-09T04:38:04.743Z,-0.2
2023-11-09T04:39:02.580Z,-0.2
2023-11-09T04:40:02.400Z,-0.2
2023-11-09T04:41:02.969Z,-0.2
2023-11-09T04:42:02.440Z,-0.2
2023-11-09T04:43:02.738Z,-0.2
2023-11-09T04:44:02.976Z,-0.2
2023-11-09T04:45:02.623Z,-0.2
2023-11-09T04:46:02.831Z,-0.2
2023-11-09T04:47:02.494Z,-0.2
2023-11-09T04:48:02.476Z,-0.2
2023-11-09T04:49:02.509Z,-0.2
2023-11-09T04:50:02.581Z,-0.3
2023-11-09T04:51:02.803Z,-0.3
2023-11-09T04:52:02.742Z,-0.3
2023-11-09T04:53:02.554Z,-0.3
2023-11-09T04:56:01.538Z,-0.3
2023-11-09T04:57:02.835Z,-0.4
2023-11-09T04:58:01.745Z,-0.4
2023-11-09T04:59:02.069Z,-0.4
2023-11-09T05:00:01.998Z,-0.4
2023-11-09T05:01:02.384Z,-0.4
2023-11-09T05:02:02.738Z,-0.4
2023-11-09T05:04:02.635Z,-0.4
2023-11-09T05:05:02.131Z,-0.4
2023-11-09T05:07:02.338Z,-0.4
2023-11-09T05:08:02.412Z,-0.4
2023-11-09T05:09:02.182Z,-0.4
2023-11-09T05:10:03.095Z,-0.4
2023-11-09T05:11:02.579Z,-0.4
2023-11-09T05:12:03.089Z,-0.4
2023-11-09T05:13:02.280Z,-0.4
2023-11-09T05:14:04.168Z,-0.4
2023-11-09T05:15:02.529Z,-0.4
2023-11-09T05:16:02.833Z,-0.5
2023-11-09T05:17:02.561Z,-0.5
2023-11-09T05:18:02.189Z,-0.4
2023-11-09T05:19:02.041Z,-0.4
2023-11-09T05:20:02.955Z,-0.4
2023-11-09T05:21:01.798Z,-0.4
2023-11-09T05:22:02.402Z,-0.4
2023-11-09T05:23:02.592Z,-0.4
2023-11-09T05:24:02.489Z,-0.4
2023-11-09T05:25:02.380Z,-0.5
2023-11-09T05:26:02.130Z,-0.5
2023-11-09T05:27:02.904Z,-0.5
2023-11-09T05:28:02.296Z,-0.5
2023-11-09T05:29:02.394Z,-0.5
2023-11-09T05:30:02.380Z,-0.5
2023-11-09T05:31:02.651Z,-0.5
2023-11-09T05:32:01.985Z,-0.6
2023-11-09T05:34:02.176Z,-0.6
2023-11-09T05:35:01.952Z,-0.6
2023-11-09T05:36:02.483Z,-0.6
2023-11-09T05:37:02.889Z,-0.6
2023-11-09T05:38:03.125Z,-0.6
2023-11-09T05:39:02.324Z,-0.6
2023-11-09T05:41:02.239Z,-0.6
2023-11-09T05:42:02.506Z,-0.6
2023-11-09T05:43:01.995Z,-0.7
2023-11-09T05:44:02.626Z,-0.7
2023-11-09T05:45:02.041Z,-0.6
2023-11-09T05:46:02.293Z,-0.6
2023-11-09T05:48:02.692Z,-0.7
2023-11-09T05:49:02.614Z,-0.7
2023-11-09T05:50:02.163Z,-0.7
2023-11-09T05:51:02.360Z,-0.7
2023-11-09T05:52:02.545Z,-0.7
2023-11-09T05:53:02.579Z,-0.7
2023-11-09T05:54:02.065Z,-0.7
2023-11-09T05:55:02.169Z,-0.7
2023-11-09T05:56:02.348Z,-0.7
2023-11-09T05:57:02.852Z,-0.7
2023-11-09T05:58:02.767Z,-0.7
2023-11-09T05:59:02.116Z,-0.7
2023-11-09T06:01:02.850Z,-0.7
2023-11-09T06:02:03.314Z,-0.7
2023-11-09T06:03:02.248Z,-0.7
2023-11-09T06:04:02.663Z,-0.7
2023-11-09T06:05:02.682Z,-0.8
2023-11-09T06:06:02.537Z,-0.7
2023-11-09T06:07:01.800Z,-0.7
2023-11-09T06:08:02.797Z,-0.7
2023-11-09T06:09:02.669Z,-0.7
2023-11-09T06:10:02.308Z,-0.7
2023-11-09T06:11:02.648Z,-0.7
2023-11-09T06:12:02.536Z,-0.7
2023-11-09T06:13:02.411Z,-0.7
2023-11-09T06:14:02.825Z,-0.6
2023-11-09T06:15:02.483Z,-0.6
2023-11-09T06:16:02.472Z,-0.6
2023-11-09T06:17:02.967Z,-0.6
2023-11-09T06:18:02.334Z,-0.5
2023-11-09T06:19:02.210Z,-0.5
2023-11-09T06:20:02.449Z,-0.5
2023-11-09T06:21:02.367Z,-0.5
2023-11-09T06:22:02.609Z,-0.5
2023-11-09T06:23:02.347Z,-0.5
2023-11-09T06:24:01.758Z,-0.5
2023-11-09T06:25:02.649Z,-0.5
2023-11-09T06:26:02.990Z,-0.4
2023-11-09T06:27:02.837Z,-0.4
2023-11-09T06:28:02.816Z,-0.4
2023-11-09T06:29:01.901Z,-0.4
2023-11-09T06:30:02.458Z,-0.4
2023-11-09T06:32:02.498Z,-0.4
2023-11-09T06:33:04.673Z,-0.4
2023-11-09T06:35:02.981Z,-0.4
2023-11-09T06:36:02.309Z,-0.3
2023-11-09T06:37:02.621Z,-0.4
2023-11-09T06:38:01.944Z,-0.3
2023-11-09T06:39:02.476Z,-0.3
2023-11-09T06:41:02.641Z,-0.3
2023-11-09T06:42:02.271Z,-0.2
2023-11-09T06:43:02.654Z,-0.2
2023-11-09T06:44:02.704Z,-0.2
2023-11-09T06:45:02.903Z,-0.2
2023-11-09T06:46:02.370Z,-0.1
2023-11-09T06:47:02.720Z,-0.1
2023-11-09T06:48:02.885Z,-0.1
2023-11-09T06:49:02.566Z,0
2023-11-09T06:50:02.056Z,0
2023-11-09T06:51:02.304Z,0
2023-11-09T06:52:02.741Z,0
2023-11-09T06:53:02.201Z,0
2023-11-09T06:54:02.553Z,0
2023-11-09T06:55:02.644Z,0
2023-11-09T06:56:02.459Z,0
2023-11-09T06:57:02.424Z,0
2023-11-09T06:58:02.237Z,0
2023-11-09T06:59:02.680Z,0
2023-11-09T07:01:02.586Z,0
2023-11-09T07:02:02.242Z,0.1
2023-11-09T07:03:01.962Z,0.1
2023-11-09T07:04:02.684Z,0.1
2023-11-09T07:05:03.044Z,0.2
2023-11-09T07:07:02.856Z,0.2
2023-11-09T07:08:01.809Z,0.2
2023-11-09T07:10:02.375Z,0.2
2023-11-09T07:11:02.500Z,0.3
2023-11-09T07:14:02.046Z,0.4
2023-11-09T07:15:02.708Z,0.3
2023-11-09T07:16:02.427Z,0.4
2023-11-09T07:17:02.002Z,0.4
2023-11-09T07:18:02.241Z,0.4
2023-11-09T07:19:02.253Z,0.5
2023-11-09T07:20:02.368Z,0.5
2023-11-09T07:21:10.089Z,0.5
2023-11-09T07:22:01.813Z,0.5
2023-11-09T07:23:02.929Z,0.5
2023-11-09T07:24:02.178Z,0.5
2023-11-09T07:25:10.647Z,0.6
2023-11-09T07:27:01.791Z,0.6
2023-11-09T07:28:02.155Z,0.6
2023-11-09T07:29:02.448Z,0.6
2023-11-09T07:30:02.938Z,0.6
2023-11-09T07:31:02.654Z,0.7
2023-11-09T07:32:02.439Z,0.7
2023-11-09T07:33:02.324Z,0.7
2023-11-09T07:35:02.926Z,0.8
2023-11-09T07:36:01.502Z,0.8
2023-11-09T07:37:02.796Z,0.8
2023-11-09T07:38:02.233Z,0.8
2023-11-09T07:39:04.264Z,0.8
2023-11-09T07:40:02.150Z,0.8
2023-11-09T07:41:02.383Z,0.8
2023-11-09T07:42:02.671Z,0.9
2023-11-09T07:43:02.411Z,0.9
2023-11-09T07:44:02.961Z,0.9
2023-11-09T07:45:01.822Z,0.9
2023-11-09T07:46:02.463Z,1
2023-11-09T07:47:01.839Z,1
2023-11-09T07:48:02.605Z,1.1
2023-11-09T07:49:02.484Z,1
2023-11-09T07:50:02.601Z,1.1
2023-11-09T07:51:02.260Z,1.1
2023-11-09T07:52:01.998Z,1.1
2023-11-09T07:53:02.341Z,1.2
2023-11-09T07:54:02.808Z,1.2
2023-11-09T07:55:02.493Z,1.2
2023-11-09T07:56:03.600Z,1.3
2023-11-09T07:57:02.358Z,1.3
2023-11-09T07:58:02.424Z,1.4
2023-11-09T07:59:02.591Z,1.4
2023-11-09T08:00:05.350Z,1.5
2023-11-09T08:01:02.994Z,1.5
2023-11-09T08:02:03.314Z,1.6
2023-11-09T08:04:02.695Z,1.6
2023-11-09T08:05:02.256Z,1.7
2023-11-09T08:06:02.121Z,1.7
2023-11-09T08:07:02.599Z,1.8
2023-11-09T08:08:02.626Z,1.9
2023-11-09T08:10:02.469Z,2
2023-11-09T08:11:02.182Z,2
2023-11-09T08:12:01.942Z,2
2023-11-09T08:13:02.343Z,2.1
2023-11-09T08:14:02.605Z,2.2
2023-11-09T08:15:02.531Z,2.1
2023-11-09T08:16:02.307Z,2.1
2023-11-09T08:17:02.885Z,2.3
2023-11-09T08:18:02.339Z,2.3
2023-11-09T08:19:03.036Z,2.3
2023-11-09T08:20:02.329Z,2.4
2023-11-09T08:21:02.228Z,2.4
2023-11-09T08:22:02.737Z,2.4
2023-11-09T08:23:02.785Z,2.5
2023-11-09T08:24:02.917Z,2.6
2023-11-09T08:25:02.037Z,2.7
2023-11-09T08:26:02.326Z,2.7
2023-11-09T08:27:01.990Z,2.8
2023-11-09T08:28:02.537Z,2.8
2023-11-09T08:29:02.244Z,2.9
2023-11-09T08:30:02.242Z,2.9
2023-11-09T08:31:02.040Z,3
2023-11-09T08:33:02.138Z,3.2
2023-11-09T08:35:02.835Z,3.2
2023-11-09T08:36:02.008Z,3.3
2023-11-09T08:37:02.070Z,3.3
2023-11-09T08:38:02.680Z,3.4
2023-11-09T08:39:01.695Z,3.4
2023-11-09T08:41:02.203Z,3.6
2023-11-09T08:42:02.450Z,3.6
2023-11-09T08:43:02.676Z,3.7
2023-11-09T08:44:01.981Z,3.8
2023-11-09T08:45:02.844Z,3.8
2023-11-09T08:46:02.745Z,3.9
2023-11-09T08:47:02.680Z,3.9
2023-11-09T08:48:02.315Z,4
2023-11-09T08:49:02.193Z,4
2023-11-09T08:50:02.280Z,4
2023-11-09T08:51:02.625Z,4.1
2023-11-09T08:52:02.818Z,4.2
2023-11-09T08:53:02.298Z,4.2
2023-11-09T08:54:02.192Z,4.3
2023-11-09T08:55:02.144Z,4.4
2023-11-09T08:57:02.347Z,4.5
2023-11-09T08:58:02.254Z,4.5
2023-11-09T08:59:02.240Z,4.5
2023-11-09T09:00:02.434Z,4.6
2023-11-09T09:01:02.444Z,4.6
2023-11-09T09:02:03.190Z,4.7
2023-11-09T09:03:02.367Z,4.8
2023-11-09T09:06:02.277Z,5
2023-11-09T09:07:01.992Z,5.1
2023-11-09T09:08:04.068Z,5.2
2023-11-09T09:09:02.439Z,5.3
2023-11-09T09:10:02.156Z,5.3
2023-11-09T09:11:04.300Z,5.4
2023-11-09T09:13:02.985Z,5.5
2023-11-09T09:14:02.331Z,5.5
2023-11-09T09:15:02.360Z,5.6
2023-11-09T09:16:02.853Z,5.6
2023-11-09T09:18:01.807Z,5.6
2023-11-09T09:20:02.311Z,5.7
2023-11-09T09:21:03.028Z,5.8
2023-11-09T09:22:02.995Z,5.9
2023-11-09T09:23:02.988Z,6
2023-11-09T09:24:02.644Z,6
2023-11-09T09:25:02.252Z,6.1
2023-11-09T09:26:14.818Z,6.1
2023-11-09T09:27:02.174Z,6.1
2023-11-09T09:28:02.832Z,6.2
2023-11-09T09:29:02.585Z,6.2
2023-11-09T09:30:02.473Z,6.3
2023-11-09T09:32:02.408Z,6.5
2023-11-09T09:33:02.678Z,6.6
2023-11-09T09:35:02.430Z,6.8
2023-11-09T09:36:02.355Z,6.8
2023-11-09T09:37:02.464Z,6.9
2023-11-09T09:38:05.479Z,6.9
2023-11-09T09:39:02.303Z,7
2023-11-09T09:40:02.913Z,7
2023-11-09T09:41:02.901Z,7.2
2023-11-09T09:43:02.284Z,7.2
2023-11-09T09:44:03.112Z,7.3
2023-11-09T09:45:02.051Z,7.3
2023-11-09T09:46:01.963Z,7.4
2023-11-09T09:47:02.073Z,7.4
2023-11-09T09:48:01.921Z,7.5
2023-11-09T09:49:02.314Z,7.6
2023-11-09T09:50:02.429Z,7.6
2023-11-09T09:51:02.441Z,7.7
2023-11-09T09:52:02.751Z,7.8
2023-11-09T09:53:01.536Z,7.9
2023-11-09T09:54:02.766Z,8
2023-11-09T09:55:02.132Z,8
2023-11-09T09:56:02.763Z,8.1
2023-11-09T09:57:02.715Z,8.1
2023-11-09T09:58:03.090Z,8.2
2023-11-09T09:59:02.642Z,8.2
2023-11-09T10:00:05.755Z,8.3
2023-11-09T10:01:01.533Z,8.2
2023-11-09T10:02:01.890Z,8.3
2023-11-09T10:03:02.298Z,8.4
2023-11-09T10:04:02.608Z,8.4
2023-11-09T10:05:02.139Z,8.4
2023-11-09T10:07:02.468Z,8.5
2023-11-09T10:08:02.473Z,8.5
2023-11-09T10:09:02.660Z,8.5
2023-11-09T10:10:02.622Z,8.6
2023-11-09T10:11:02.167Z,8.6
2023-11-09T10:12:02.130Z,8.7
2023-11-09T10:13:02.337Z,8.7
2023-11-09T10:14:02.151Z,8.8
2023-11-09T10:15:02.042Z,8.8
2023-11-09T10:16:01.992Z,8.8
2023-11-09T10:17:02.530Z,8.9
2023-11-09T10:18:02.321Z,8.9
2023-11-09T10:19:02.055Z,9
2023-11-09T10:20:02.657Z,9.1
2023-11-09T10:21:02.774Z,9.1
2023-11-09T10:22:02.479Z,9.2
2023-11-09T10:23:02.300Z,9.2
2023-11-09T10:24:01.429Z,9.2
2023-11-09T10:25:02.173Z,9.2
2023-11-09T10:26:02.208Z,9.2
2023-11-09T10:27:02.175Z,9.2
2023-11-09T10:28:02.341Z,9.4
2023-11-09T10:29:01.628Z,9.5
2023-11-09T10:30:02.063Z,9.6
2023-11-09T10:32:02.249Z,9.7
2023-11-09T10:33:02.264Z,9.8
2023-11-09T10:36:02.590Z,9.9
2023-11-09T10:37:02.016Z,10
2023-11-09T10:38:02.004Z,10
2023-11-09T10:39:02.443Z,10.1
2023-11-09T10:40:02.209Z,10.3
2023-11-09T10:41:15.452Z,10.4
2023-11-09T10:42:02.829Z,10.4
2023-11-09T10:43:02.511Z,10.5
2023-11-09T10:44:05.280Z,10.7
2023-11-09T10:45:02.491Z,10.7
2023-11-09T10:47:04.605Z,10.9
2023-11-09T10:48:02.606Z,10.9
2023-11-09T10:49:01.995Z,11.1
2023-11-09T10:50:04.737Z,11.2
2023-11-09T10:51:03.331Z,11.2
2023-11-09T10:52:02.679Z,11.3
2023-11-09T10:53:02.759Z,11.3
2023-11-09T10:54:02.706Z,11.3
2023-11-09T10:55:02.397Z,11.3
2023-11-09T10:56:04.943Z,11.3
2023-11-09T10:59:02.024Z,11.4
2023-11-09T11:00:02.925Z,11.4
2023-11-09T11:01:02.138Z,11.4
2023-11-09T11:02:04.262Z,11.4
2023-11-09T11:03:02.239Z,11.4
2023-11-09T11:04:02.550Z,11.5
2023-11-09T11:05:02.251Z,11.4
2023-11-09T11:06:02.464Z,11.5
2023-11-09T11:07:02.462Z,11.6
2023-11-09T11:08:02.589Z,11.6
2023-11-09T11:09:02.288Z,11.6
2023-11-09T11:10:02.213Z,11.6
2023-11-09T11:11:02.266Z,11.6
2023-11-09T11:12:02.535Z,11.6
2023-11-09T11:13:02.306Z,11.6
2023-11-09T11:14:02.170Z,11.6
2023-11-09T11:15:02.908Z,11.6
2023-11-09T11:16:02.224Z,11.6
2023-11-09T11:17:02.050Z,11.6
2023-11-09T11:18:06.610Z,11.6
2023-11-09T11:19:03.098Z,11.7
2023-11-09T11:20:02.391Z,11.7
2023-11-09T11:21:02.588Z,11.8
2023-11-09T11:22:02.792Z,11.8
2023-11-09T11:23:02.109Z,11.8
2023-11-09T11:24:02.469Z,11.8
2023-11-09T11:25:02.728Z,11.9
2023-11-09T11:26:04.467Z,11.9
2023-11-09T11:27:06.202Z,12
2023-11-09T11:28:02.796Z,12
2023-11-09T11:29:01.855Z,12
2023-11-09T11:30:02.583Z,12
2023-11-09T11:31:01.927Z,12
2023-11-09T11:32:07.625Z,12
2023-11-09T11:33:02.203Z,12
2023-11-09T11:35:01.777Z,11.9
2023-11-09T11:36:02.836Z,11.8
2023-11-09T11:37:02.131Z,11.8
2023-11-09T11:38:02.279Z,11.8
2023-11-09T11:39:02.905Z,11.7
2023-11-09T11:40:02.382Z,11.6
2023-11-09T11:41:02.112Z,11.6
2023-11-09T11:42:02.269Z,11.6
2023-11-09T11:43:02.363Z,11.5
2023-11-09T11:44:02.381Z,11.5
2023-11-09T11:45:02.526Z,11.4
2023-11-09T11:46:02.330Z,11.4
2023-11-09T11:47:02.241Z,11.4
2023-11-09T11:48:02.064Z,11.4
2023-11-09T11:49:02.692Z,11.3
2023-11-09T11:50:02.786Z,11.4
2023-11-09T11:51:02.927Z,11.4
2023-11-09T11:52:02.031Z,11.3
2023-11-09T11:53:02.585Z,11.3
2023-11-09T11:54:02.789Z,11.3
2023-11-09T11:56:02.337Z,11.2
2023-11-09T11:58:02.122Z,11.2
2023-11-09T11:59:02.378Z,11.2
2023-11-09T12:00:02.298Z,11.2
2023-11-09T12:01:02.794Z,11.2
2023-11-09T12:02:02.765Z,11.2
2023-11-09T12:03:03.059Z,11.1
2023-11-09T12:04:03.617Z,11.1
2023-11-09T12:05:03.088Z,11.1
2023-11-09T12:06:14.060Z,11.1
2023-11-09T12:07:02.125Z,11.1
2023-11-09T12:08:01.983Z,11
2023-11-09T12:09:01.900Z,11
2023-11-09T12:10:02.138Z,11
2023-11-09T12:11:02.414Z,11.1
2023-11-09T12:12:02.196Z,11
2023-11-09T12:13:02.060Z,11
2023-11-09T12:14:02.109Z,11
2023-11-09T12:15:02.433Z,11
2023-11-09T12:16:01.661Z,11.1
2023-11-09T12:17:02.812Z,11
2023-11-09T12:18:02.815Z,11
2023-11-09T12:19:01.657Z,11
2023-11-09T12:20:02.557Z,11
2023-11-09T12:21:02.122Z,11
2023-11-09T12:22:02.062Z,11
2023-11-09T12:23:02.658Z,11
2023-11-09T12:24:02.227Z,11
2023-11-09T12:25:02.250Z,11
2023-11-09T12:26:02.226Z,10.9
2023-11-09T12:27:02.286Z,11
2023-11-09T12:28:02.197Z,11
2023-11-09T12:29:02.206Z,11
2023-11-09T12:30:02.820Z,11
2023-11-09T12:31:02.300Z,11
2023-11-09T12:32:02.630Z,11.1
2023-11-09T12:33:02.256Z,11.2
2023-11-09T12:34:02.578Z,11.2
2023-11-09T12:35:02.938Z,11.3
2023-11-09T12:36:02.421Z,11.4
2023-11-09T12:37:03.020Z,11.4
2023-11-09T12:38:02.318Z,11.5
2023-11-09T12:39:02.341Z,11.5
2023-11-09T12:40:02.290Z,11.5
2023-11-09T12:41:03.047Z,11.5
2023-11-09T12:42:02.603Z,11.4
2023-11-09T12:45:02.470Z,11.5
2023-11-09T12:46:02.906Z,11.5
2023-11-09T12:47:02.353Z,11.5
2023-11-09T12:49:02.963Z,11.5
2023-11-09T12:50:02.362Z,11.6
2023-11-09T12:51:02.142Z,11.6
2023-11-09T12:52:02.020Z,11.6
2023-11-09T12:53:01.791Z,11.6
2023-11-09T12:54:01.738Z,11.7
2023-11-09T12:55:03.153Z,11.7
2023-11-09T12:56:02.159Z,11.8
2023-11-09T12:57:02.240Z,11.8
2023-11-09T12:58:02.702Z,11.8
2023-11-09T12:59:02.346Z,11.8
2023-11-09T13:00:02.470Z,11.7
2023-11-09T13:01:02.602Z,11.7
2023-11-09T13:02:02.383Z,11.8
2023-11-09T13:03:02.675Z,11.7
2023-11-09T13:04:02.478Z,11.8
2023-11-09T13:05:03.342Z,11.8
2023-11-09T13:06:07.663Z,11.7
2023-11-09T13:07:02.348Z,11.7
2023-11-09T13:08:02.325Z,11.7
2023-11-09T13:09:02.366Z,11.7
2023-11-09T13:10:02.737Z,11.7
2023-11-09T13:11:02.826Z,11.7
2023-11-09T13:12:02.141Z,11.7
2023-11-09T13:13:02.641Z,11.7
2023-11-09T13:14:02.311Z,11.7
2023-11-09T13:15:02.988Z,11.7
2023-11-09T13:17:02.770Z,11.7
2023-11-09T13:18:03.906Z,11.6
2023-11-09T13:19:09.421Z,11.6
2023-11-09T13:21:02.781Z,11.6
2023-11-09T13:22:02.328Z,11.6
2023-11-09T13:24:02.539Z,11.5
2023-11-09T13:25:02.525Z,11.5
2023-11-09T13:26:03.070Z,11.5
2023-11-09T13:27:02.269Z,11.4
2023-11-09T13:29:02.755Z,11.3
2023-11-09T13:30:02.422Z,11.3
2023-11-09T13:31:02.751Z,11.2
2023-11-09T13:32:01.946Z,11.2
2023-11-09T13:33:02.078Z,11.2
2023-11-09T13:35:05.805Z,11.2
2023-11-09T13:36:02.687Z,11.2
2023-11-09T13:37:02.642Z,11.1
2023-11-09T13:38:02.291Z,11.1
2023-11-09T13:39:02.810Z,11.1
2023-11-09T13:40:03.128Z,11.1
2023-11-09T13:41:05.337Z,11.2
2023-11-09T13:42:03.090Z,11.2
2023-11-09T13:44:02.655Z,11.1
2023-11-09T13:45:02.702Z,11.2
2023-11-09T13:46:02.219Z,11.2
2023-11-09T13:47:05.521Z,11.2
2023-11-09T13:48:02.226Z,11.2
2023-11-09T13:49:02.684Z,11.2
2023-11-09T13:50:02.244Z,11.1
2023-11-09T13:51:02.237Z,11.2
2023-11-09T13:52:02.814Z,11.1
2023-11-09T13:53:05.406Z,11.1
2023-11-09T13:54:02.430Z,11.1
2023-11-09T13:55:02.481Z,11.1
2023-11-09T13:56:02.484Z,11
2023-11-09T13:58:02.624Z,11
2023-11-09T13:59:02.711Z,11
2023-11-09T14:00:02.379Z,11
2023-11-09T14:01:02.714Z,11
2023-11-09T14:02:02.939Z,10.9
2023-11-09T14:03:02.426Z,10.8
2023-11-09T14:04:02.295Z,10.9
2023-11-09T14:05:06.868Z,10.9
2023-11-09T14:06:02.244Z,10.8
2023-11-09T14:07:02.605Z,10.8
2023-11-09T14:08:02.296Z,10.8
2023-11-09T14:09:02.034Z,10.8
2023-11-09T14:11:03.412Z,10.9
2023-11-09T14:12:02.322Z,10.8
2023-11-09T14:13:02.771Z,10.8
2023-11-09T14:14:02.436Z,10.9
2023-11-09T14:16:02.871Z,10.8
2023-11-09T14:17:02.585Z,10.8
2023-11-09T14:18:02.692Z,10.8
2023-11-09T14:20:02.233Z,10.8
2023-11-09T14:23:02.102Z,10.8
2023-11-09T14:24:02.304Z,10.8
2023-11-09T14:25:02.146Z,10.8
2023-11-09T14:28:02.507Z,10.8
2023-11-09T14:29:02.855Z,10.8
2023-11-09T14:30:02.331Z,10.8
2023-11-09T14:32:02.792Z,10.8
2023-11-09T14:33:02.390Z,10.8
2023-11-09T14:34:02.406Z,10.8
2023-11-09T14:35:05.153Z,10.8
2023-11-09T14:36:02.171Z,10.8
2023-11-09T14:37:02.444Z,10.8
2023-11-09T14:38:02.609Z,10.9
2023-11-09T14:39:02.063Z,10.8
2023-11-09T14:40:01.997Z,10.8
2023-11-09T14:41:02.838Z,10.8
2023-11-09T14:42:02.244Z,10.8
2023-11-09T14:43:09.932Z,10.8
2023-11-09T14:44:02.633Z,10.8
2023-11-09T14:45:02.729Z,10.8
2023-11-09T14:46:02.187Z,10.8
2023-11-09T14:47:05.109Z,10.7
2023-11-09T14:48:02.518Z,10.7
2023-11-09T14:49:02.851Z,10.7
2023-11-09T14:50:02.922Z,10.7
2023-11-09T14:51:02.736Z,10.7
2023-11-09T14:52:02.071Z,10.7
2023-11-09T14:53:06.313Z,10.6
2023-11-09T14:54:01.980Z,10.6
2023-11-09T14:55:02.006Z,10.6
2023-11-09T14:57:02.518Z,10.6
2023-11-09T14:58:02.893Z,10.6
2023-11-09T14:59:04.378Z,10.5
2023-11-09T15:00:02.718Z,10.5
2023-11-09T15:01:02.349Z,10.5
2023-11-09T15:02:02.865Z,10.5
2023-11-09T15:03:02.392Z,10.4
2023-11-09T15:04:02.690Z,10.4
2023-11-09T15:06:02.687Z,10.4
2023-11-09T15:07:03.132Z,10.4
2023-11-09T15:08:03.035Z,10.3
2023-11-09T15:10:01.986Z,10.4
2023-11-09T15:11:04.624Z,10.3
2023-11-09T15:12:02.089Z,10.3
2023-11-09T15:13:02.566Z,10.3
2023-11-09T15:14:02.703Z,10.2
2023-11-09T15:15:03.274Z,10.2
2023-11-09T15:16:02.277Z,10.2
2023-11-09T15:17:02.458Z,10.2
2023-11-09T15:18:02.930Z,10.1
2023-11-09T15:19:02.485Z,10.1